ADDS METAR Data INFO
IDs: Format: Raw Decoded Include TAF

Data at: 0458 UTC 25 May 2018

KPNA 250435Z AUTO 28006KT 10SM CLR 06/05 A3025 RMK AO2
KPNA 250415Z AUTO 29012KT 10SM CLR 07/06 A3025 RMK AO2
KPNA 250355Z AUTO 28006KT 10SM CLR 07/05 A3026 RMK AO2
KPNA 250335Z AUTO 28009KT 10SM CLR 08/05 A3025 RMK AO2
KPNA 250315Z AUTO 29007KT 10SM CLR 09/06 A3025 RMK AO2
KPNA 250255Z AUTO 29012G15KT 10SM CLR 11/06 A3024 RMK AO2
KPNA 250235Z AUTO 29013KT 10SM CLR 12/06 A3024 RMK AO2
KPNA 250215Z AUTO 30014KT 10SM CLR 13/05 A3024 RMK AO2
KPNA 250155Z AUTO 33008KT 10SM CLR 14/06 A3023 RMK AO2
KPNA 250135Z AUTO 33009G15KT 10SM CLR 15/06 A3023 RMK AO2 LTG DSNT N
KPNA 250115Z AUTO 33013G18KT 10SM CLR 15/06 A3022 RMK AO2
KPNA 250055Z AUTO 33015G22KT 10SM SCT080 SCT110 16/06 A3022 RMK AO2
KPNA 250035Z AUTO 33013G18KT 10SM SCT110 15/07 A3023 RMK AO2
KPNA 250015Z AUTO 32013G19KT 10SM SCT065 SCT085 BKN100 15/06 A3024 RMK AO2
KPNA 242355Z AUTO 32017G22KT 7SM BKN065 OVC085 15/06 A3024 RMK AO2
KPNA 242335Z AUTO 32015G24KT 10SM -RA BKN065 OVC085 16/06 A3022 RMK AO2
KPNA 242315Z AUTO 32009G17KT 290V350 10SM VCTS SCT065 SCT095 SCT110 18/02 A3021 RMK AO2
KPNA 242255Z AUTO 25006KT 10SM SCT070 SCT090 20/02 A3021 RMK AO2
KPNA 242235Z AUTO 23007KT 150V250 10SM SCT070 BKN090 OVC120 18/02 A3021 RMK AO2 LTG DSNT W
KPNA 242215Z AUTO 25005G18KT 7SM SCT060 SCT080 BKN110 18/02 A3021 RMK AO2
KPNA 242155Z AUTO 29009G19KT 10SM BKN060 BKN100 18/03 A3021 RMK AO2
KPNA 242135Z AUTO 32010G19KT 10SM SCT060 BKN100 18/03 A3021 RMK AO2 LTG DSNT SW
KPNA 242115Z AUTO 27009G16KT 260V340 10SM SCT060 SCT080 BKN100 19/03 A3022 RMK AO2
KPNA 242055Z AUTO 32008G15KT 7SM BKN060 BKN080 OVC100 17/03 A3022 RMK AO2
KPNA 242035Z AUTO 26006G15KT 10SM BKN060 BKN075 OVC090 17/03 A3023 RMK AO2
KPNA 242015Z AUTO 33008G14KT 7SM SCT060 BKN100 18/03 A3022 RMK AO2
KPNA 241955Z AUTO 29008KT 270V330 10SM SCT048 SCT060 BKN100 17/03 A3023 RMK AO2
KPNA 241935Z AUTO 27009G14KT 160V340 7SM SCT050 SCT060 BKN075 17/05 A3023 RMK AO2
KPNA 241915Z AUTO 28006KT 7SM BKN090 16/05 A3024 RMK AO2
KPNA 241855Z AUTO 28006KT 10SM SCT060 BKN080 15/05 A3024 RMK AO2
KPNA 241835Z AUTO 32003KT 10SM SCT060 OVC080 15/05 A3024 RMK AO2
KPNA 241815Z AUTO 00000KT 10SM BKN060 OVC080 15/05 A3025 RMK AO2
KPNA 241755Z AUTO 27009KT 260V330 10SM SCT047 BKN060 OVC080 15/04 A3025 RMK AO2
KPNA 241735Z AUTO 32006KT 7SM SCT041 BKN047 BKN055 15/04 A3025 RMK AO2
KPNA 241715Z AUTO 26006KT 10SM SCT043 BKN050 BKN060 15/05 A3025 RMK AO2
KPNA 241655Z AUTO 04004KT 10SM CLR 15/05 A3024 RMK AO2
KPNA 241635Z AUTO 34005KT 10SM CLR 13/05 A3024 RMK AO2
KPNA 241615Z AUTO 36007KT 10SM CLR 13/05 A3024 RMK AO2
KPNA 241555Z AUTO 29005KT 10SM CLR 12/04 A3024 RMK AO2
KPNA 241535Z AUTO 30004KT 10SM CLR 11/05 A3024 RMK AO2
KPNA 241515Z AUTO 31004KT 10SM SCT070 11/05 A3024 RMK AO2
KPNA 241455Z AUTO 29004KT 10SM SCT070 10/05 A3024 RMK AO2
KPNA 241435Z AUTO 00000KT 10SM SCT070 07/05 A3024 RMK AO2
KPNA 241355Z AUTO 00000KT 10SM OVC070 06/05 A3024 RMK AO2
KPNA 241335Z AUTO 00000KT 10SM OVC070 05/05 A3024 RMK AO2
KPNA 241315Z AUTO 28004KT 10SM OVC060 05/05 A3023 RMK AO2
KPNA 241255Z AUTO 27003KT 10SM OVC060 04/04 A3023 RMK AO2
KPNA 241235Z AUTO 27005KT 10SM BKN060 04/04 A3022 RMK AO2
KPNA 241215Z AUTO 00000KT 10SM SCT060 03/03 A3021 RMK AO2
KPNA 241155Z AUTO 00000KT 10SM CLR 03/03 A3021 RMK AO2
KPNA 241135Z AUTO 00000KT 10SM SCT080 03/03 A3021 RMK AO2
KPNA 241115Z AUTO 00000KT 10SM CLR 03/03 A3019 RMK AO2
KPNA 241055Z AUTO 32003KT 10SM CLR 04/03 A3019 RMK AO2
KPNA 241035Z AUTO 00000KT 10SM CLR 05/04 A3018 RMK AO2
KPNA 241015Z AUTO 00000KT 10SM CLR 05/04 A3018 RMK AO2
KPNA 240955Z AUTO 32005KT 10SM CLR 05/05 A3018 RMK AO2
KPNA 240935Z AUTO 32004KT 10SM CLR 05/05 A3017 RMK AO2
KPNA 240915Z AUTO 00000KT 10SM CLR 05/05 A3017 RMK AO2
KPNA 240855Z AUTO 31003KT 10SM CLR 06/05 A3016 RMK AO2
KPNA 240835Z AUTO 00000KT 10SM SCT060 05/05 A3016 RMK AO2
KPNA 240815Z AUTO 31003KT 10SM CLR 06/05 A3016 RMK AO2
KPNA 240755Z AUTO 31003KT 10SM CLR 06/05 A3016 RMK AO2
KPNA 240735Z AUTO 30003KT 10SM CLR 06/05 A3016 RMK AO2
KPNA 240715Z AUTO 32004KT 10SM CLR 06/05 A3016 RMK AO2
KPNA 240655Z AUTO 30005KT 10SM CLR 06/06 A3016 RMK AO2
KPNA 240635Z AUTO 31005KT 10SM SCT065 06/05 A3016 RMK AO2
KPNA 240615Z AUTO 30004KT 10SM BKN055 OVC080 07/06 A3016 RMK AO2
KPNA 240555Z AUTO 27004KT 10SM BKN090 BKN110 07/05 A3016 RMK AO2
KPNA 240535Z AUTO 25003KT 10SM SCT070 OVC090 07/05 A3016 RMK AO2
KPNA 240515Z AUTO 00000KT 10SM SCT050 BKN070 BKN100 07/05 A3016 RMK AO2
KPNA 240455Z AUTO 30006KT 10SM SCT060 SCT090 07/05 A3017 RMK AO2
KPNA 240435Z AUTO 30010G15KT 10SM SCT050 BKN090 08/05 A3018 RMK AO2
KPNA 240415Z AUTO 30010KT 10SM BKN050 BKN080 BKN090 08/06 A3017 RMK AO2
KPNA 240355Z AUTO 14003KT 10SM BKN080 OVC095 08/06 A3015 RMK AO2
KPNA 240335Z AUTO 16003KT 10SM OVC085 09/05 A3014 RMK AO2
KPNA 240315Z AUTO 13004KT 10SM OVC075 08/06 A3013 RMK AO2
KPNA 240255Z AUTO 00000KT 10SM SCT075 08/05 A3013 RMK AO2
KPNA 240235Z AUTO 31004KT 10SM CLR 08/05 A3011 RMK AO2
KPNA 240215Z AUTO 35007KT 10SM SCT090 10/06 A3011 RMK AO2
KPNA 240155Z AUTO 29007KT 10SM CLR 10/06 A3011 RMK AO2
KPNA 240135Z AUTO 34006KT 300V010 10SM CLR 11/05 A3009 RMK AO2
KPNA 240115Z AUTO 36007KT 10SM CLR 11/04 A3009 RMK AO2
KPNA 240055Z AUTO 02006KT 10SM CLR 11/05 A3009 RMK AO2 LTG DSNT NE AND W
KPNA 240035Z AUTO 03004KT 10SM SCT070 11/05 A3009 RMK AO2
KPNA 240015Z AUTO 01005KT 10SM SCT070 SCT085 11/06 A3009 RMK AO2
KPNA 232355Z AUTO 29006KT 10SM SCT048 SCT060 OVC085 10/07 A3009 RMK AO2
KPNA 232335Z AUTO 27011G20KT 10SM -VCTSRA SCT050 BKN060 BKN070 11/04 A3009 RMK AO2 LTG DSNT W
KPNA 232315Z AUTO 34007KT 290V010 10SM SCT100 12/03 A3008 RMK AO2
KPNA 232255Z AUTO 36007KT 300V030 10SM CLR 11/04 A3009 RMK AO2
KPNA 232235Z AUTO 35009KT 10SM SCT065 11/05 A3009 RMK AO2
KPNA 232215Z AUTO 32012KT 10SM SCT065 BKN080 12/06 A3008 RMK AO2 LTG DSNT W
KPNA 232155Z AUTO 30011G20KT 10SM SCT037 SCT046 BKN080 13/06 A3007 RMK AO2
KPNA 232135Z AUTO 29010G25KT 10SM SCT039 BKN050 BKN060 14/04 A3007 RMK AO2 LTG DSNT NW
KPNA 232115Z AUTO 23004KT 10SM TS CLR 13/04 A3006 RMK AO2 LTG DSNT S THRU NW
KPNA 232055Z AUTO 30008KT 270V340 10SM VCTS SCT050 SCT065 12/05 A3006 RMK AO2 LTG DSNT NE AND SE
KPNA 232035Z AUTO 36009KT 10SM -RA BKN050 BKN065 BKN085 12/05 A3007 RMK AO2
KPNA 232015Z AUTO 02005KT 10SM TS SCT055 SCT095 12/05 A3008 RMK AO2 LTG DSNT SE
KPNA 231955Z AUTO 01006KT 10SM BKN095 BKN110 11/06 A3007 RMK AO2 LTG DSNT N AND SE
KPNA 231935Z AUTO 31004KT 10SM TS SCT060 BKN080 OVC110 10/05 A3007 RMK AO2 LTG DSNT ALQS
KPNA 231915Z AUTO 23006KT 10SM -RA SCT050 SCT070 OVC080 09/05 A3006 RMK AO2 LTG DSNT SW THRU NE
KPNA 231855Z AUTO 29012G28KT 7SM -VCTSRA SCT034 BKN045 OVC070 07/04 A3008 RMK AO2 LTG DSNT ALQS
KPNA 231835Z AUTO 29011KT 10SM SCT041 BKN048 OVC065 12/05 A3006 RMK AO2 LTG DSNT SW AND W
KPNA 231815Z AUTO 29010KT 10SM TS SCT039 BKN060 OVC070 12/05 A3006 RMK AO2 LTG DSNT SW
KPNA 231755Z AUTO 21006G18KT 10SM -RA BKN034 BKN046 OVC060 11/04 A3007 RMK AO2 LTG DSNT SE
KPNA 231735Z AUTO 19004G18KT 10SM BKN031 BKN040 OVC070 12/05 A3008 RMK AO2
KPNA 231715Z AUTO 21008G18KT 10SM BKN031 BKN039 BKN050 12/05 A3008 RMK AO2 LTG DSNT SE AND S